sensor_id;sensor_type;location;lat;lon;timestamp;temperature;humidity
31837;DHT22;18401;49.344;6.240;2024-02-26T00:02:23;6.40;94.80
31837;DHT22;18401;49.344;6.240;2024-02-26T00:04:48;6.40;99.90
31837;DHT22;18401;49.344;6.240;2024-02-26T00:07:16;6.40;99.90
31837;DHT22;18401;49.344;6.240;2024-02-26T00:09:42;6.40;99.90
31837;DHT22;18401;49.344;6.240;2024-02-26T00:12:08;6.40;99.90
31837;DHT22;18401;49.344;6.240;2024-02-26T00:14:34;6.40;99.90
31837;DHT22;18401;49.344;6.240;2024-02-26T00:17:00;6.40;99.90
31837;DHT22;18401;49.344;6.240;2024-02-26T00:19:25;6.30;99.90
31837;DHT22;18401;49.344;6.240;2024-02-26T00:21:51;6.40;99.90
31837;DHT22;18401;49.344;6.240;2024-02-26T00:24:19;6.50;30.00
31837;DHT22;18401;49.344;6.240;2024-02-26T00:26:44;6.50;1.00
31837;DHT22;18401;49.344;6.240;2024-02-26T00:29:10;6.60;99.90
31837;DHT22;18401;49.344;6.240;2024-02-26T00:31:36;6.60;99.90
31837;DHT22;18401;49.344;6.240;2024-02-26T00:34:03;6.70;99.90
31837;DHT22;18401;49.344;6.240;2024-02-26T00:36:29;6.70;99.90
31837;DHT22;18401;49.344;6.240;2024-02-26T00:38:55;6.70;99.90
31837;DHT22;18401;49.344;6.240;2024-02-26T00:41:21;6.60;99.90
31837;DHT22;18401;49.344;6.240;2024-02-26T00:43:47;6.60;99.90
31837;DHT22;18401;49.344;6.240;2024-02-26T00:46:12;6.60;99.90
31837;DHT22;18401;49.344;6.240;2024-02-26T00:48:38;6.50;1.00
31837;DHT22;18401;49.344;6.240;2024-02-26T00:51:04;6.60;1.00
31837;DHT22;18401;49.344;6.240;2024-02-26T00:53:31;6.60;1.00
31837;DHT22;18401;49.344;6.240;2024-02-26T00:55:57;6.50;12.20
31837;DHT22;18401;49.344;6.240;2024-02-26T00:58:24;6.40;99.10
31837;DHT22;18401;49.344;6.240;2024-02-26T01:00:50;6.40;99.90
31837;DHT22;18401;49.344;6.240;2024-02-26T01:03:17;6.40;99.90
31837;DHT22;18401;49.344;6.240;2024-02-26T01:05:43;6.40;99.90
31837;DHT22;18401;49.344;6.240;2024-02-26T01:08:08;6.40;99.90
31837;DHT22;18401;49.344;6.240;2024-02-26T01:10:34;6.40;99.90
31837;DHT22;18401;49.344;6.240;2024-02-26T01:13:00;6.40;99.90
31837;DHT22;18401;49.344;6.240;2024-02-26T01:15:26;6.20;31.60
31837;DHT22;18401;49.344;6.240;2024-02-26T01:17:52;6.30;99.90
31837;DHT22;18401;49.344;6.240;2024-02-26T01:20:18;6.20;99.90
31837;DHT22;18401;49.344;6.240;2024-02-26T01:22:44;6.10;99.90
31837;DHT22;18401;49.344;6.240;2024-02-26T01:25:10;6.10;99.90
31837;DHT22;18401;49.344;6.240;2024-02-26T01:27:39;6.10;1.00
31837;DHT22;18401;49.344;6.240;2024-02-26T01:30:07;6.10;22.80
31837;DHT22;18401;49.344;6.240;2024-02-26T01:32:33;6.20;99.90
31837;DHT22;18401;49.344;6.240;2024-02-26T01:34:58;6.10;99.90
31837;DHT22;18401;49.344;6.240;2024-02-26T01:37:24;6.10;76.60
31837;DHT22;18401;49.344;6.240;2024-02-26T01:39:50;6.10;99.90
31837;DHT22;18401;49.344;6.240;2024-02-26T01:42:15;6.10;99.90
31837;DHT22;18401;49.344;6.240;2024-02-26T01:44:41;6.20;1.00
31837;DHT22;18401;49.344;6.240;2024-02-26T01:47:10;6.20;20.30
31837;DHT22;18401;49.344;6.240;2024-02-26T01:49:37;6.20;99.90
31837;DHT22;18401;49.344;6.240;2024-02-26T01:52:05;6.10;99.90
31837;DHT22;18401;49.344;6.240;2024-02-26T01:54:31;6.20;99.90
31837;DHT22;18401;49.344;6.240;2024-02-26T01:56:57;6.20;1.00
31837;DHT22;18401;49.344;6.240;2024-02-26T01:59:24;6.20;1.00
31837;DHT22;18401;49.344;6.240;2024-02-26T02:01:54;6.30;1.80
31837;DHT22;18401;49.344;6.240;2024-02-26T02:04:20;6.30;58.90
31837;DHT22;18401;49.344;6.240;2024-02-26T02:06:47;6.30;99.90
31837;DHT22;18401;49.344;6.240;2024-02-26T02:09:13;6.30;99.90
31837;DHT22;18401;49.344;6.240;2024-02-26T02:11:39;6.30;99.90
31837;DHT22;18401;49.344;6.240;2024-02-26T02:14:05;6.30;99.90
31837;DHT22;18401;49.344;6.240;2024-02-26T02:16:31;6.30;99.90
31837;DHT22;18401;49.344;6.240;2024-02-26T02:18:58;6.40;99.90
31837;DHT22;18401;49.344;6.240;2024-02-26T02:21:23;6.30;99.90
31837;DHT22;18401;49.344;6.240;2024-02-26T02:23:49;6.30;1.00
31837;DHT22;18401;49.344;6.240;2024-02-26T02:26:15;6.40;1.00
31837;DHT22;18401;49.344;6.240;2024-02-26T02:28:41;6.40;1.00
31837;DHT22;18401;49.344;6.240;2024-02-26T02:31:07;6.40;13.70
31837;DHT22;18401;49.344;6.240;2024-02-26T02:33:34;6.40;9.60
31837;DHT22;18401;49.344;6.240;2024-02-26T02:36:00;6.50;17.30
31837;DHT22;18401;49.344;6.240;2024-02-26T02:38:26;6.50;1.00
31837;DHT22;18401;49.344;6.240;2024-02-26T02:40:52;6.50;1.00
31837;DHT22;18401;49.344;6.240;2024-02-26T02:43:18;6.60;1.00
31837;DHT22;18401;49.344;6.240;2024-02-26T02:45:44;6.50;99.90
31837;DHT22;18401;49.344;6.240;2024-02-26T02:48:11;6.60;1.00
31837;DHT22;18401;49.344;6.240;2024-02-26T02:50:37;6.60;1.00
31837;DHT22;18401;49.344;6.240;2024-02-26T02:53:02;6.60;99.90
31837;DHT22;18401;49.344;6.240;2024-02-26T02:55:28;6.70;99.90
31837;DHT22;18401;49.344;6.240;2024-02-26T02:57:54;6.80;99.90
31837;DHT22;18401;49.344;6.240;2024-02-26T03:00:20;6.70;99.90
31837;DHT22;18401;49.344;6.240;2024-02-26T03:02:48;6.60;99.90
31837;DHT22;18401;49.344;6.240;2024-02-26T03:05:14;6.70;99.90
31837;DHT22;18401;49.344;6.240;2024-02-26T03:07:39;6.80;99.90
31837;DHT22;18401;49.344;6.240;2024-02-26T03:10:05;6.80;99.90
31837;DHT22;18401;49.344;6.240;2024-02-26T03:12:31;6.90;99.90
31837;DHT22;18401;49.344;6.240;2024-02-26T03:14:57;6.90;99.90
31837;DHT22;18401;49.344;6.240;2024-02-26T03:17:23;6.90;99.90
31837;DHT22;18401;49.344;6.240;2024-02-26T03:19:49;6.90;99.90
31837;DHT22;18401;49.344;6.240;2024-02-26T03:22:19;7.00;38.90
31837;DHT22;18401;49.344;6.240;2024-02-26T03:24:45;7.00;99.90
31837;DHT22;18401;49.344;6.240;2024-02-26T03:27:11;6.90;99.90
31837;DHT22;18401;49.344;6.240;2024-02-26T03:29:39;6.90;99.90
31837;DHT22;18401;49.344;6.240;2024-02-26T03:32:05;6.90;1.00
31837;DHT22;18401;49.344;6.240;2024-02-26T03:34:34;6.90;15.80
31837;DHT22;18401;49.344;6.240;2024-02-26T03:37:00;6.90;99.90
31837;DHT22;18401;49.344;6.240;2024-02-26T03:39:26;6.80;99.90
31837;DHT22;18401;49.344;6.240;2024-02-26T03:41:52;6.90;99.90
31837;DHT22;18401;49.344;6.240;2024-02-26T03:44:18;6.90;99.90
31837;DHT22;18401;49.344;6.240;2024-02-26T03:46:43;7.00;15.60
31837;DHT22;18401;49.344;6.240;2024-02-26T03:49:09;7.00;99.90
31837;DHT22;18401;49.344;6.240;2024-02-26T03:51:34;7.00;99.90
31837;DHT22;18401;49.344;6.240;2024-02-26T03:54:01;7.00;99.90
31837;DHT22;18401;49.344;6.240;2024-02-26T03:56:27;7.00;99.90
31837;DHT22;18401;49.344;6.240;2024-02-26T03:58:53;6.90;99.90
31837;DHT22;18401;49.344;6.240;2024-02-26T04:01:18;6.90;99.90
31837;DHT22;18401;49.344;6.240;2024-02-26T04:03:44;6.90;1.00
31837;DHT22;18401;49.344;6.240;2024-02-26T04:06:10;6.90;1.00
31837;DHT22;18401;49.344;6.240;2024-02-26T04:08:37;7.00;27.40
31837;DHT22;18401;49.344;6.240;2024-02-26T04:11:03;7.00;1.00
31837;DHT22;18401;49.344;6.240;2024-02-26T04:13:33;7.00;1.00
31837;DHT22;18401;49.344;6.240;2024-02-26T04:15:59;7.00;1.00
31837;DHT22;18401;49.344;6.240;2024-02-26T04:18:27;6.90;1.00
31837;DHT22;18401;49.344;6.240;2024-02-26T04:20:52;7.00;1.00
31837;DHT22;18401;49.344;6.240;2024-02-26T04:23:18;6.90;1.00
31837;DHT22;18401;49.344;6.240;2024-02-26T04:25:44;7.00;99.90
31837;DHT22;18401;49.344;6.240;2024-02-26T04:28:10;7.00;99.90
31837;DHT22;18401;49.344;6.240;2024-02-26T04:30:36;7.00;99.90
31837;DHT22;18401;49.344;6.240;2024-02-26T04:33:02;6.90;21.20
31837;DHT22;18401;49.344;6.240;2024-02-26T04:35:27;6.90;99.90
31837;DHT22;18401;49.344;6.240;2024-02-26T04:37:53;6.90;99.90
31837;DHT22;18401;49.344;6.240;2024-02-26T04:40:19;6.90;99.90
31837;DHT22;18401;49.344;6.240;2024-02-26T04:42:44;7.00;99.90
31837;DHT22;18401;49.344;6.240;2024-02-26T04:45:10;7.00;98.60
31837;DHT22;18401;49.344;6.240;2024-02-26T04:47:35;7.10;99.90
31837;DHT22;18401;49.344;6.240;2024-02-26T04:50:01;7.00;99.90
31837;DHT22;18401;49.344;6.240;2024-02-26T04:52:27;7.10;99.90
31837;DHT22;18401;49.344;6.240;2024-02-26T04:54:53;7.00;99.90
31837;DHT22;18401;49.344;6.240;2024-02-26T04:57:20;7.00;99.90
31837;DHT22;18401;49.344;6.240;2024-02-26T04:59:46;7.10;99.90
31837;DHT22;18401;49.344;6.240;2024-02-26T05:02:12;7.10;99.90
31837;DHT22;18401;49.344;6.240;2024-02-26T05:04:38;7.10;99.90
31837;DHT22;18401;49.344;6.240;2024-02-26T05:07:04;7.10;99.90
31837;DHT22;18401;49.344;6.240;2024-02-26T05:09:30;7.00;99.90
31837;DHT22;18401;49.344;6.240;2024-02-26T05:11:55;7.00;99.90
31837;DHT22;18401;49.344;6.240;2024-02-26T05:14:21;7.00;1.00
31837;DHT22;18401;49.344;6.240;2024-02-26T05:16:47;7.10;2.30
31837;DHT22;18401;49.344;6.240;2024-02-26T05:19:13;7.10;16.70
31837;DHT22;18401;49.344;6.240;2024-02-26T05:21:38;7.10;18.50
31837;DHT22;18401;49.344;6.240;2024-02-26T05:24:05;7.10;44.70
31837;DHT22;18401;49.344;6.240;2024-02-26T05:26:31;7.10;63.90
31837;DHT22;18401;49.344;6.240;2024-02-26T05:28:57;7.10;75.20
31837;DHT22;18401;49.344;6.240;2024-02-26T05:31:26;7.10;46.40
31837;DHT22;18401;49.344;6.240;2024-02-26T05:33:52;7.10;77.60
31837;DHT22;18401;49.344;6.240;2024-02-26T05:36:19;7.10;99.90
31837;DHT22;18401;49.344;6.240;2024-02-26T05:38:45;7.00;99.90
31837;DHT22;18401;49.344;6.240;2024-02-26T05:41:12;7.00;99.90
31837;DHT22;18401;49.344;6.240;2024-02-26T05:43:37;7.10;99.90
31837;DHT22;18401;49.344;6.240;2024-02-26T05:46:03;7.10;99.90
31837;DHT22;18401;49.344;6.240;2024-02-26T05:48:29;7.10;99.90
31837;DHT22;18401;49.344;6.240;2024-02-26T05:50:54;7.10;1.00
31837;DHT22;18401;49.344;6.240;2024-02-26T05:53:20;7.10;99.90
31837;DHT22;18401;49.344;6.240;2024-02-26T05:55:46;7.10;99.90
31837;DHT22;18401;49.344;6.240;2024-02-26T05:58:12;7.20;99.90
31837;DHT22;18401;49.344;6.240;2024-02-26T06:00:37;7.20;99.90
31837;DHT22;18401;49.344;6.240;2024-02-26T06:03:03;7.10;99.90
31837;DHT22;18401;49.344;6.240;2024-02-26T06:05:29;7.20;99.90
31837;DHT22;18401;49.344;6.240;2024-02-26T06:07:54;7.20;99.90
31837;DHT22;18401;49.344;6.240;2024-02-26T06:10:20;7.20;99.90
31837;DHT22;18401;49.344;6.240;2024-02-26T06:12:47;7.10;99.90
31837;DHT22;18401;49.344;6.240;2024-02-26T06:15:12;7.20;99.90
31837;DHT22;18401;49.344;6.240;2024-02-26T06:17:38;7.20;99.90
31837;DHT22;18401;49.344;6.240;2024-02-26T06:20:04;7.20;99.90
31837;DHT22;18401;49.344;6.240;2024-02-26T06:22:32;7.30;99.90
31837;DHT22;18401;49.344;6.240;2024-02-26T06:24:58;7.20;99.90
31837;DHT22;18401;49.344;6.240;2024-02-26T06:27:24;7.20;99.90
31837;DHT22;18401;49.344;6.240;2024-02-26T06:29:49;7.30;71.00
31837;DHT22;18401;49.344;6.240;2024-02-26T06:32:15;7.20;51.40
31837;DHT22;18401;49.344;6.240;2024-02-26T06:34:41;7.30;38.10
31837;DHT22;18401;49.344;6.240;2024-02-26T06:37:08;7.20;1.00
31837;DHT22;18401;49.344;6.240;2024-02-26T06:39:33;7.30;1.00
31837;DHT22;18401;49.344;6.240;2024-02-26T06:41:59;7.20;14.50
31837;DHT22;18401;49.344;6.240;2024-02-26T06:44:28;7.30;1.00
31837;DHT22;18401;49.344;6.240;2024-02-26T06:47:00;7.20;1.00
31837;DHT22;18401;49.344;6.240;2024-02-26T06:49:26;7.30;99.90
31837;DHT22;18401;49.344;6.240;2024-02-26T06:51:52;7.30;99.90
31837;DHT22;18401;49.344;6.240;2024-02-26T06:54:18;7.30;99.90
31837;DHT22;18401;49.344;6.240;2024-02-26T06:56:44;7.30;99.90
31837;DHT22;18401;49.344;6.240;2024-02-26T06:59:09;7.30;99.90
31837;DHT22;18401;49.344;6.240;2024-02-26T07:01:35;7.30;99.90
31837;DHT22;18401;49.344;6.240;2024-02-26T07:04:00;7.30;99.90
31837;DHT22;18401;49.344;6.240;2024-02-26T07:06:29;7.30;99.90
31837;DHT22;18401;49.344;6.240;2024-02-26T07:08:55;7.40;99.90
31837;DHT22;18401;49.344;6.240;2024-02-26T07:11:21;7.30;99.90
31837;DHT22;18401;49.344;6.240;2024-02-26T07:13:47;7.40;99.90
31837;DHT22;18401;49.344;6.240;2024-02-26T07:16:12;7.40;99.90
31837;DHT22;18401;49.344;6.240;2024-02-26T07:18:41;7.30;99.90
31837;DHT22;18401;49.344;6.240;2024-02-26T07:21:07;7.40;99.90
31837;DHT22;18401;49.344;6.240;2024-02-26T07:23:33;7.40;99.90
31837;DHT22;18401;49.344;6.240;2024-02-26T07:25:59;7.40;99.90
31837;DHT22;18401;49.344;6.240;2024-02-26T07:28:25;7.40;99.90
31837;DHT22;18401;49.344;6.240;2024-02-26T07:30:50;7.50;91.00
31837;DHT22;18401;49.344;6.240;2024-02-26T07:33:16;7.50;65.20
31837;DHT22;18401;49.344;6.240;2024-02-26T07:35:42;7.50;1.00
31837;DHT22;18401;49.344;6.240;2024-02-26T07:38:07;7.50;1.00
31837;DHT22;18401;49.344;6.240;2024-02-26T07:40:33;7.60;99.90
31837;DHT22;18401;49.344;6.240;2024-02-26T07:42:59;7.60;99.90
31837;DHT22;18401;49.344;6.240;2024-02-26T07:45:24;7.60;97.60
31837;DHT22;18401;49.344;6.240;2024-02-26T07:47:50;7.60;1.00
31837;DHT22;18401;49.344;6.240;2024-02-26T07:50:17;7.70;1.00
31837;DHT22;18401;49.344;6.240;2024-02-26T07:52:43;7.70;99.90
31837;DHT22;18401;49.344;6.240;2024-02-26T07:55:09;7.70;99.90
31837;DHT22;18401;49.344;6.240;2024-02-26T07:57:35;7.80;99.90
31837;DHT22;18401;49.344;6.240;2024-02-26T08:00:02;7.70;99.90
31837;DHT22;18401;49.344;6.240;2024-02-26T08:02:28;7.80;90.20
31837;DHT22;18401;49.344;6.240;2024-02-26T08:04:54;7.90;1.00
31837;DHT22;18401;49.344;6.240;2024-02-26T08:07:19;7.90;99.90
31837;DHT22;18401;49.344;6.240;2024-02-26T08:09:46;7.90;99.90
31837;DHT22;18401;49.344;6.240;2024-02-26T08:12:12;7.90;99.90
31837;DHT22;18401;49.344;6.240;2024-02-26T08:14:38;8.00;99.90
31837;DHT22;18401;49.344;6.240;2024-02-26T08:17:03;8.00;99.90
31837;DHT22;18401;49.344;6.240;2024-02-26T08:19:29;8.10;92.80
31837;DHT22;18401;49.344;6.240;2024-02-26T08:21:55;8.10;56.80
31837;DHT22;18401;49.344;6.240;2024-02-26T08:24:20;8.20;1.00
31837;DHT22;18401;49.344;6.240;2024-02-26T08:26:46;8.30;99.90
31837;DHT22;18401;49.344;6.240;2024-02-26T08:29:12;8.20;99.90
31837;DHT22;18401;49.344;6.240;2024-02-26T08:31:37;8.30;99.90
31837;DHT22;18401;49.344;6.240;2024-02-26T08:34:03;8.20;99.90
31837;DHT22;18401;49.344;6.240;2024-02-26T08:36:31;8.20;99.90
31837;DHT22;18401;49.344;6.240;2024-02-26T08:38:57;8.20;99.90
31837;DHT22;18401;49.344;6.240;2024-02-26T08:41:23;8.20;99.90
31837;DHT22;18401;49.344;6.240;2024-02-26T08:43:48;8.30;99.90
31837;DHT22;18401;49.344;6.240;2024-02-26T08:46:14;8.30;99.90
31837;DHT22;18401;49.344;6.240;2024-02-26T08:48:40;8.30;82.30
31837;DHT22;18401;49.344;6.240;2024-02-26T08:51:09;8.20;99.90
31837;DHT22;18401;49.344;6.240;2024-02-26T08:53:38;8.40;99.90
31837;DHT22;18401;49.344;6.240;2024-02-26T08:56:04;8.40;99.90
31837;DHT22;18401;49.344;6.240;2024-02-26T08:58:30;8.40;99.90
31837;DHT22;18401;49.344;6.240;2024-02-26T09:00:56;8.50;99.90
31837;DHT22;18401;49.344;6.240;2024-02-26T09:03:22;8.50;58.90
31837;DHT22;18401;49.344;6.240;2024-02-26T09:05:48;8.60;1.00
31837;DHT22;18401;49.344;6.240;2024-02-26T09:08:13;8.70;99.90
31837;DHT22;18401;49.344;6.240;2024-02-26T09:10:39;8.80;99.90
31837;DHT22;18401;49.344;6.240;2024-02-26T09:13:05;8.90;99.90
31837;DHT22;18401;49.344;6.240;2024-02-26T09:15:31;8.90;99.90
31837;DHT22;18401;49.344;6.240;2024-02-26T09:17:57;9.10;99.90
31837;DHT22;18401;49.344;6.240;2024-02-26T09:20:22;9.20;89.80
31837;DHT22;18401;49.344;6.240;2024-02-26T09:22:49;9.20;53.10
31837;DHT22;18401;49.344;6.240;2024-02-26T09:25:16;9.30;99.90
31837;DHT22;18401;49.344;6.240;2024-02-26T09:27:45;9.30;99.90
31837;DHT22;18401;49.344;6.240;2024-02-26T09:30:11;9.40;99.90
31837;DHT22;18401;49.344;6.240;2024-02-26T09:32:37;9.40;99.90
31837;DHT22;18401;49.344;6.240;2024-02-26T09:35:03;9.40;99.90
31837;DHT22;18401;49.344;6.240;2024-02-26T09:37:29;9.50;99.90
31837;DHT22;18401;49.344;6.240;2024-02-26T09:39:55;9.50;99.90
31837;DHT22;18401;49.344;6.240;2024-02-26T09:42:21;9.50;99.90
31837;DHT22;18401;49.344;6.240;2024-02-26T09:44:52;9.40;99.90
31837;DHT22;18401;49.344;6.240;2024-02-26T09:47:19;9.50;99.90
31837;DHT22;18401;49.344;6.240;2024-02-26T09:49:47;9.60;99.90
31837;DHT22;18401;49.344;6.240;2024-02-26T09:52:15;9.60;99.90
31837;DHT22;18401;49.344;6.240;2024-02-26T09:54:41;9.60;99.90
31837;DHT22;18401;49.344;6.240;2024-02-26T09:57:09;9.70;94.20
31837;DHT22;18401;49.344;6.240;2024-02-26T09:59:41;9.70;58.70
31837;DHT22;18401;49.344;6.240;2024-02-26T10:02:14;10.00;83.60
31837;DHT22;18401;49.344;6.240;2024-02-26T10:04:41;10.20;82.10
31837;DHT22;18401;49.344;6.240;2024-02-26T10:07:12;10.30;1.00
31837;DHT22;18401;49.344;6.240;2024-02-26T10:09:38;10.30;1.00
31837;DHT22;18401;49.344;6.240;2024-02-26T10:12:04;10.30;1.00
31837;DHT22;18401;49.344;6.240;2024-02-26T10:14:30;10.40;1.00
31837;DHT22;18401;49.344;6.240;2024-02-26T10:16:57;10.50;99.90
31837;DHT22;18401;49.344;6.240;2024-02-26T10:19:30;10.50;99.90
31837;DHT22;18401;49.344;6.240;2024-02-26T10:22:00;10.40;99.90
31837;DHT22;18401;49.344;6.240;2024-02-26T10:24:27;10.50;99.90
31837;DHT22;18401;49.344;6.240;2024-02-26T10:26:54;10.70;99.90
31837;DHT22;18401;49.344;6.240;2024-02-26T10:29:20;10.80;99.90
31837;DHT22;18401;49.344;6.240;2024-02-26T10:31:46;10.90;99.90
31837;DHT22;18401;49.344;6.240;2024-02-26T10:34:12;10.90;99.90
31837;DHT22;18401;49.344;6.240;2024-02-26T10:36:38;10.80;99.90
31837;DHT22;18401;49.344;6.240;2024-02-26T10:39:06;10.70;99.90
31837;DHT22;18401;49.344;6.240;2024-02-26T10:41:35;10.60;99.90
31837;DHT22;18401;49.344;6.240;2024-02-26T10:44:01;10.50;99.90
31837;DHT22;18401;49.344;6.240;2024-02-26T10:46:27;10.60;99.90
31837;DHT22;18401;49.344;6.240;2024-02-26T10:48:53;10.70;99.90
31837;DHT22;18401;49.344;6.240;2024-02-26T10:51:26;10.70;99.90
31837;DHT22;18401;49.344;6.240;2024-02-26T10:53:56;10.70;99.90
31837;DHT22;18401;49.344;6.240;2024-02-26T10:56:29;10.60;99.90
31837;DHT22;18401;49.344;6.240;2024-02-26T10:58:57;10.60;99.90
31837;DHT22;18401;49.344;6.240;2024-02-26T11:01:24;10.60;99.90
31837;DHT22;18401;49.344;6.240;2024-02-26T11:03:51;10.60;99.90
31837;DHT22;18401;49.344;6.240;2024-02-26T11:06:18;10.60;99.90
31837;DHT22;18401;49.344;6.240;2024-02-26T11:08:44;10.50;99.90
31837;DHT22;18401;49.344;6.240;2024-02-26T11:11:13;10.60;99.90
31837;DHT22;18401;49.344;6.240;2024-02-26T11:13:41;10.80;99.90
31837;DHT22;18401;49.344;6.240;2024-02-26T11:16:11;10.90;99.90
31837;DHT22;18401;49.344;6.240;2024-02-26T11:18:39;11.10;99.90
31837;DHT22;18401;49.344;6.240;2024-02-26T11:21:05;11.10;99.90
31837;DHT22;18401;49.344;6.240;2024-02-26T11:23:34;11.10;99.90
31837;DHT22;18401;49.344;6.240;2024-02-26T11:26:04;10.90;99.90
31837;DHT22;18401;49.344;6.240;2024-02-26T11:28:32;10.90;99.90
31837;DHT22;18401;49.344;6.240;2024-02-26T11:30:59;10.90;99.90
31837;DHT22;18401;49.344;6.240;2024-02-26T11:33:27;10.80;99.90
31837;DHT22;18401;49.344;6.240;2024-02-26T11:35:54;10.70;99.90
31837;DHT22;18401;49.344;6.240;2024-02-26T11:38:21;10.90;99.90
31837;DHT22;18401;49.344;6.240;2024-02-26T11:40:47;10.80;99.90
31837;DHT22;18401;49.344;6.240;2024-02-26T11:43:13;10.90;99.90
31837;DHT22;18401;49.344;6.240;2024-02-26T11:48:21;11.10;99.90
31837;DHT22;18401;49.344;6.240;2024-02-26T11:50:54;11.30;99.90
31837;DHT22;18401;49.344;6.240;2024-02-26T11:55:46;11.70;99.90
31837;DHT22;18401;49.344;6.240;2024-02-26T11:58:11;11.90;87.80
31837;DHT22;18401;49.344;6.240;2024-02-26T12:00:40;12.70;95.30
31837;DHT22;18401;49.344;6.240;2024-02-26T12:03:06;13.10;25.40
31837;DHT22;18401;49.344;6.240;2024-02-26T12:05:34;13.10;1.00
31837;DHT22;18401;49.344;6.240;2024-02-26T12:08:06;13.00;1.00
31837;DHT22;18401;49.344;6.240;2024-02-26T12:10:34;13.40;1.00
31837;DHT22;18401;49.344;6.240;2024-02-26T12:13:12;13.80;1.00
31837;DHT22;18401;49.344;6.240;2024-02-26T12:15:39;14.30;1.00
31837;DHT22;18401;49.344;6.240;2024-02-26T12:18:07;14.10;99.90
31837;DHT22;18401;49.344;6.240;2024-02-26T12:20:35;14.30;99.90
31837;DHT22;18401;49.344;6.240;2024-02-26T12:23:02;14.70;99.90
31837;DHT22;18401;49.344;6.240;2024-02-26T12:25:29;14.50;99.90
31837;DHT22;18401;49.344;6.240;2024-02-26T12:27:55;14.20;99.90
31837;DHT22;18401;49.344;6.240;2024-02-26T12:30:22;13.90;99.90
31837;DHT22;18401;49.344;6.240;2024-02-26T12:32:49;13.70;99.90
31837;DHT22;18401;49.344;6.240;2024-02-26T12:35:15;13.60;99.90
31837;DHT22;18401;49.344;6.240;2024-02-26T12:37:42;13.30;99.90
31837;DHT22;18401;49.344;6.240;2024-02-26T12:40:09;13.10;99.90
31837;DHT22;18401;49.344;6.240;2024-02-26T12:42:36;12.90;99.90
31837;DHT22;18401;49.344;6.240;2024-02-26T12:45:12;12.90;99.90
31837;DHT22;18401;49.344;6.240;2024-02-26T12:47:42;13.00;99.90
31837;DHT22;18401;49.344;6.240;2024-02-26T12:50:09;13.30;99.90
31837;DHT22;18401;49.344;6.240;2024-02-26T12:52:39;13.60;99.90
31837;DHT22;18401;49.344;6.240;2024-02-26T12:55:05;14.60;99.90
31837;DHT22;18401;49.344;6.240;2024-02-26T12:57:38;15.80;99.90
31837;DHT22;18401;49.344;6.240;2024-02-26T13:00:07;16.00;99.90
31837;DHT22;18401;49.344;6.240;2024-02-26T13:02:36;15.60;99.90
31837;DHT22;18401;49.344;6.240;2024-02-26T13:05:04;15.60;99.90
31837;DHT22;18401;49.344;6.240;2024-02-26T13:07:30;14.90;99.90
31837;DHT22;18401;49.344;6.240;2024-02-26T13:09:56;15.00;99.90
31837;DHT22;18401;49.344;6.240;2024-02-26T13:12:22;15.90;99.90
31837;DHT22;18401;49.344;6.240;2024-02-26T13:15:01;16.20;99.90
31837;DHT22;18401;49.344;6.240;2024-02-26T13:17:30;16.00;99.90
31837;DHT22;18401;49.344;6.240;2024-02-26T13:19:56;15.50;99.90
31837;DHT22;18401;49.344;6.240;2024-02-26T13:22:22;14.60;99.90
31837;DHT22;18401;49.344;6.240;2024-02-26T13:24:55;14.20;99.90
31837;DHT22;18401;49.344;6.240;2024-02-26T13:27:24;14.50;99.90
31837;DHT22;18401;49.344;6.240;2024-02-26T13:30:09;14.40;99.90
31837;DHT22;18401;49.344;6.240;2024-02-26T13:32:37;14.00;99.90
31837;DHT22;18401;49.344;6.240;2024-02-26T13:35:09;13.80;99.90
31837;DHT22;18401;49.344;6.240;2024-02-26T13:37:35;13.80;99.90
31837;DHT22;18401;49.344;6.240;2024-02-26T13:40:05;13.70;99.90
31837;DHT22;18401;49.344;6.240;2024-02-26T13:42:31;13.60;99.90
31837;DHT22;18401;49.344;6.240;2024-02-26T13:44:57;13.30;99.90
31837;DHT22;18401;49.344;6.240;2024-02-26T13:47:22;13.20;99.90
31837;DHT22;18401;49.344;6.240;2024-02-26T13:49:48;13.10;99.90
31837;DHT22;18401;49.344;6.240;2024-02-26T13:52:14;13.10;99.90
31837;DHT22;18401;49.344;6.240;2024-02-26T13:54:39;13.20;99.90
31837;DHT22;18401;49.344;6.240;2024-02-26T13:57:06;13.20;99.90
31837;DHT22;18401;49.344;6.240;2024-02-26T13:59:32;13.20;99.90
31837;DHT22;18401;49.344;6.240;2024-02-26T14:01:57;12.90;99.90
31837;DHT22;18401;49.344;6.240;2024-02-26T14:04:23;12.80;99.90
31837;DHT22;18401;49.344;6.240;2024-02-26T14:06:49;12.70;99.90
31837;DHT22;18401;49.344;6.240;2024-02-26T14:09:14;12.60;99.90
31837;DHT22;18401;49.344;6.240;2024-02-26T14:11:46;12.50;99.90
31837;DHT22;18401;49.344;6.240;2024-02-26T14:14:12;12.50;99.90
31837;DHT22;18401;49.344;6.240;2024-02-26T14:16:37;12.50;99.90
31837;DHT22;18401;49.344;6.240;2024-02-26T14:19:03;12.30;99.90
31837;DHT22;18401;49.344;6.240;2024-02-26T14:21:29;12.30;99.90
31837;DHT22;18401;49.344;6.240;2024-02-26T14:23:57;12.20;99.90
31837;DHT22;18401;49.344;6.240;2024-02-26T14:26:23;12.10;99.90
31837;DHT22;18401;49.344;6.240;2024-02-26T14:28:49;12.10;99.90
31837;DHT22;18401;49.344;6.240;2024-02-26T14:31:18;12.00;99.90
31837;DHT22;18401;49.344;6.240;2024-02-26T14:33:44;12.00;99.90
31837;DHT22;18401;49.344;6.240;2024-02-26T14:36:10;12.10;99.90
31837;DHT22;18401;49.344;6.240;2024-02-26T14:38:36;12.10;99.90
31837;DHT22;18401;49.344;6.240;2024-02-26T14:41:02;12.10;99.90
31837;DHT22;18401;49.344;6.240;2024-02-26T14:43:29;12.10;99.90
31837;DHT22;18401;49.344;6.240;2024-02-26T14:45:55;12.10;99.90
31837;DHT22;18401;49.344;6.240;2024-02-26T14:48:21;12.10;99.90
31837;DHT22;18401;49.344;6.240;2024-02-26T14:50:46;12.00;99.90
31837;DHT22;18401;49.344;6.240;2024-02-26T14:53:12;12.10;99.90
31837;DHT22;18401;49.344;6.240;2024-02-26T14:55:38;12.00;99.90
31837;DHT22;18401;49.344;6.240;2024-02-26T14:58:04;11.90;99.90
31837;DHT22;18401;49.344;6.240;2024-02-26T15:00:29;12.00;99.90
31837;DHT22;18401;49.344;6.240;2024-02-26T15:02:59;11.90;99.90
31837;DHT22;18401;49.344;6.240;2024-02-26T15:05:25;11.90;99.90
31837;DHT22;18401;49.344;6.240;2024-02-26T15:07:50;11.90;99.90
31837;DHT22;18401;49.344;6.240;2024-02-26T15:10:16;11.90;1.00
31837;DHT22;18401;49.344;6.240;2024-02-26T15:12:41;11.90;1.00
31837;DHT22;18401;49.344;6.240;2024-02-26T15:15:07;11.90;1.00
31837;DHT22;18401;49.344;6.240;2024-02-26T15:17:33;12.00;1.00
31837;DHT22;18401;49.344;6.240;2024-02-26T15:20:00;11.90;1.00
31837;DHT22;18401;49.344;6.240;2024-02-26T15:22:26;11.90;1.00
31837;DHT22;18401;49.344;6.240;2024-02-26T15:24:52;11.90;1.00
31837;DHT22;18401;49.344;6.240;2024-02-26T15:27:18;11.70;1.00
31837;DHT22;18401;49.344;6.240;2024-02-26T15:29:43;11.70;1.00
31837;DHT22;18401;49.344;6.240;2024-02-26T15:32:10;11.60;1.00
31837;DHT22;18401;49.344;6.240;2024-02-26T15:34:36;11.60;2.30
31837;DHT22;18401;49.344;6.240;2024-02-26T15:37:02;11.50;1.00
31837;DHT22;18401;49.344;6.240;2024-02-26T15:39:28;11.40;1.00
31837;DHT22;18401;49.344;6.240;2024-02-26T15:41:54;11.40;1.00
31837;DHT22;18401;49.344;6.240;2024-02-26T15:44:19;11.40;1.00